createdAt,value
2022-10-17T00:02:59.367Z,0.3
2022-10-17T00:05:21.328Z,0.4
2022-10-17T00:10:21.812Z,0.6
2022-10-17T00:15:22.357Z,0.5
2022-10-17T00:20:22.993Z,0.4
2022-10-17T00:25:23.578Z,0.5
2022-10-17T00:30:24.124Z,0.5
2022-10-17T00:35:24.818Z,0.6
2022-10-17T00:40:25.457Z,0.6
2022-10-17T00:45:25.950Z,0.6
2022-10-17T00:50:26.658Z,0.8
2022-10-17T00:55:27.527Z,0.4
2022-10-17T01:00:27.728Z,0.5
2022-10-17T01:05:28.319Z,0.5
2022-10-17T01:10:28.989Z,0.5
2022-10-17T01:15:29.509Z,0.6
2022-10-17T01:20:30.087Z,0.6
2022-10-17T01:25:30.787Z,0.5
2022-10-17T01:30:31.259Z,0.6
2022-10-17T01:35:31.798Z,0.7
2022-10-17T01:40:32.488Z,0.3
2022-10-17T01:45:32.888Z,0.5
2022-10-17T01:50:33.467Z,0.9
2022-10-17T01:55:34.391Z,0.6
2022-10-17T02:00:34.597Z,0.6
2022-10-17T02:05:35.199Z,0.8
2022-10-17T02:10:35.880Z,0.6
2022-10-17T02:15:36.403Z,0.8
2022-10-17T02:20:36.868Z,0.4
2022-10-17T02:25:37.587Z,0.6
2022-10-17T02:30:38.058Z,0.8
2022-10-17T02:35:38.579Z,0.7
2022-10-17T02:40:39.153Z,0.7
2022-10-17T02:45:39.779Z,0.5
2022-10-17T02:50:40.439Z,0.5
2022-10-17T02:55:41.056Z,0.5
2022-10-17T03:00:41.469Z,0.6
2022-10-17T03:05:41.971Z,0.7
2022-10-17T03:10:42.645Z,0.4
2022-10-17T03:15:43.059Z,0.4
2022-10-17T03:20:43.679Z,0.5
2022-10-17T03:25:44.290Z,0.5
2022-10-17T03:30:44.897Z,0.3
2022-10-17T03:35:45.280Z,0.5
2022-10-17T03:40:45.787Z,0.5
2022-10-17T03:45:46.378Z,0.3
2022-10-17T03:50:46.846Z,0.4
2022-10-17T03:55:47.472Z,0.4
2022-10-17T04:00:47.913Z,0.5
2022-10-17T04:05:48.526Z,0.5
2022-10-17T04:10:48.969Z,0.3
2022-10-17T04:15:49.579Z,0.5
2022-10-17T04:20:50.065Z,0.6
2022-10-17T04:25:50.717Z,0.5
2022-10-17T04:30:53.997Z,0.3
2022-10-17T04:35:51.789Z,0.4
2022-10-17T04:40:52.421Z,0.7
2022-10-17T04:45:52.839Z,0.4
2022-10-17T04:50:53.480Z,0.6
2022-10-17T04:55:54.240Z,0.3
2022-10-17T05:00:54.731Z,0.3
2022-10-17T05:05:55.208Z,0.3
2022-10-17T05:10:55.830Z,0.2
2022-10-17T05:15:56.520Z,0.4
2022-10-17T05:20:56.864Z,0.2
2022-10-17T05:25:57.559Z,0.3
2022-10-17T05:30:57.997Z,0.2
2022-10-17T05:35:58.590Z,0.2
2022-10-17T05:40:59.196Z,0.2
2022-10-17T05:45:59.737Z,0.4
2022-10-17T05:51:00.361Z,0.2
2022-10-17T05:56:00.992Z,0.3
2022-10-17T06:01:01.374Z,0.2
2022-10-17T06:06:01.887Z,0.3
2022-10-17T06:11:06.054Z,0.3
2022-10-17T06:16:02.988Z,0.6
2022-10-17T06:21:03.623Z,0.3
2022-10-17T06:26:04.160Z,0.3
2022-10-17T06:31:04.738Z,0.2
2022-10-17T06:36:05.188Z,0.3
2022-10-17T06:41:05.786Z,0.2
2022-10-17T06:46:06.367Z,0.1
2022-10-17T06:51:06.860Z,0.6
2022-10-17T06:56:07.828Z,0.3
2022-10-17T07:06:08.533Z,0.4
2022-10-17T07:11:09.198Z,0.2
2022-10-17T07:16:09.604Z,0.2
2022-10-17T07:21:10.129Z,0.2
2022-10-17T07:26:10.799Z,0.2
2022-10-17T07:31:11.416Z,0.4
2022-10-17T07:36:11.779Z,0.4
2022-10-17T07:41:14.436Z,0.4
2022-10-17T07:46:12.888Z,0.4
2022-10-17T07:51:13.488Z,0.5
2022-10-17T07:56:14.315Z,0.4
2022-10-17T08:01:15.376Z,0.4
2022-10-17T08:06:15.113Z,0.3
2022-10-17T08:11:15.848Z,0.3
2022-10-17T08:16:16.359Z,0.5
2022-10-17T08:21:16.856Z,0.8
2022-10-17T08:26:17.491Z,0.5
2022-10-17T08:31:17.995Z,0.5
2022-10-17T08:36:18.648Z,0.4
2022-10-17T08:41:19.236Z,0.3
2022-10-17T08:46:20.099Z,0.6
2022-10-17T08:51:20.380Z,0.7
2022-10-17T08:56:30.360Z,0.6
2022-10-17T09:01:21.549Z,0.6
2022-10-17T09:06:21.979Z,0.3
2022-10-17T09:11:22.685Z,0.5
2022-10-17T09:16:23.131Z,0.4
2022-10-17T09:21:23.705Z,0.4
2022-10-17T09:26:24.335Z,0.5
2022-10-17T09:31:24.968Z,0.6
2022-10-17T09:36:25.466Z,0.4
2022-10-17T09:41:44.346Z,0.4
2022-10-17T09:46:26.726Z,0.7
2022-10-17T09:51:27.366Z,0.4
2022-10-17T09:56:28.074Z,0.7
2022-10-17T10:01:28.536Z,0.4
2022-10-17T10:06:28.961Z,0.3
2022-10-17T10:11:29.556Z,0.4
2022-10-17T10:16:30.208Z,0.6
2022-10-17T10:21:30.767Z,0.5
2022-10-17T10:26:31.462Z,0.4
2022-10-17T10:31:31.843Z,0.3
2022-10-17T10:36:32.503Z,0.6
2022-10-17T10:41:33.111Z,0.4
2022-10-17T10:46:33.642Z,0.4
2022-10-17T10:51:34.236Z,0.5
2022-10-17T10:56:35.055Z,0.5
2022-10-17T11:01:35.459Z,0.4
2022-10-17T11:06:35.992Z,0.4
2022-10-17T11:11:36.858Z,0.5
2022-10-17T11:16:37.226Z,0.4
2022-10-17T11:21:37.791Z,0.6
2022-10-17T11:26:38.554Z,0.4
2022-10-17T11:31:38.980Z,0.5
2022-10-17T11:36:40.691Z,0.4
2022-10-17T11:41:40.165Z,0.3
2022-10-17T11:46:40.799Z,0.5
2022-10-17T11:52:03.301Z,0.3
2022-10-17T11:56:42.988Z,0.4
2022-10-17T12:01:42.621Z,0.3
2022-10-17T12:06:43.147Z,0.3
2022-10-17T12:11:43.843Z,0.3
2022-10-17T12:16:44.422Z,0.3
2022-10-17T12:21:44.979Z,0.3
2022-10-17T12:26:45.871Z,0.4
2022-10-17T12:31:46.398Z,0.2
2022-10-17T12:36:46.978Z,0.2
2022-10-17T12:41:47.644Z,0.2
2022-10-17T12:46:48.136Z,0.3
2022-10-17T12:51:48.930Z,0.1
2022-10-17T12:56:49.824Z,0.2
2022-10-17T13:01:49.962Z,0.2
2022-10-17T13:06:50.649Z,0.1
2022-10-17T13:11:51.201Z,0.2
2022-10-17T13:16:51.792Z,0.2
2022-10-17T13:21:52.368Z,0.2
2022-10-17T13:26:53.059Z,0.2
2022-10-17T13:31:53.644Z,0.2
2022-10-17T13:36:54.125Z,0.3
2022-10-17T13:41:54.891Z,0.2
2022-10-17T13:46:55.473Z,0.1
2022-10-17T13:51:56.084Z,0.3
2022-10-17T13:56:57.065Z,0.6
2022-10-17T14:01:57.589Z,0.1
2022-10-17T14:06:57.955Z,0.4
2022-10-17T14:11:58.720Z,0.3
2022-10-17T14:16:59.208Z,0.3
2022-10-17T14:21:59.890Z,0.2
2022-10-17T14:27:00.575Z,0.4
2022-10-17T14:32:00.991Z,0.4
2022-10-17T14:37:01.671Z,0.3
2022-10-17T14:42:04.509Z,0.3
2022-10-17T14:47:18.267Z,0.3
2022-10-17T14:52:07.822Z,0.5
2022-10-17T14:57:04.312Z,0.5
2022-10-17T15:02:04.839Z,0.5
2022-10-17T15:07:05.453Z,0.4
2022-10-17T15:12:06.014Z,0.4
2022-10-17T15:17:06.693Z,0.3
2022-10-17T15:22:07.286Z,0.5
2022-10-17T15:27:07.983Z,0.6
2022-10-17T15:32:08.930Z,0.8
2022-10-17T15:37:09.193Z,0.4
2022-10-17T15:42:09.954Z,0.5
2022-10-17T15:47:10.628Z,0.4
2022-10-17T15:52:10.998Z,0.7
2022-10-17T15:57:12.198Z,0.7
2022-10-17T16:02:12.420Z,0.6
2022-10-17T16:07:13.035Z,0.9
2022-10-17T16:12:13.784Z,0.9
2022-10-17T16:17:14.456Z,0.7
2022-10-17T16:22:14.924Z,1.0
2022-10-17T16:27:15.693Z,1.1
2022-10-17T16:32:16.499Z,0.7
2022-10-17T16:37:17.151Z,0.7
2022-10-17T16:42:17.671Z,1.0
2022-10-17T16:47:18.201Z,1.1
2022-10-17T16:52:18.767Z,0.8
2022-10-17T16:57:19.633Z,0.8
2022-10-17T17:02:21.380Z,0.9
2022-10-17T17:07:20.623Z,1.1
2022-10-17T17:12:21.491Z,0.7
2022-10-17T17:17:36.987Z,1.7
2022-10-17T17:22:22.560Z,0.8
2022-10-17T17:27:23.190Z,0.7
2022-10-17T17:32:24.013Z,0.7
2022-10-17T17:37:24.499Z,1.0
2022-10-17T17:42:25.120Z,1.0
2022-10-17T17:47:25.773Z,1.0
2022-10-17T17:52:26.408Z,0.9
2022-10-17T17:57:27.187Z,1.2
2022-10-17T18:02:27.653Z,0.7
2022-10-17T18:07:27.973Z,0.8
2022-10-17T18:12:29.031Z,0.8
2022-10-17T18:17:29.214Z,1.3
2022-10-17T18:22:30.031Z,0.9
2022-10-17T18:27:30.260Z,0.7
2022-10-17T18:32:31.342Z,0.9
2022-10-17T18:37:31.552Z,1.2
2022-10-17T18:42:34.648Z,1.0
2022-10-17T18:47:32.795Z,1.0
2022-10-17T18:52:34.596Z,0.9
2022-10-17T18:57:33.666Z,1.1
2022-10-17T19:02:37.271Z,1.2
2022-10-17T19:07:34.827Z,1.1
2022-10-17T19:12:35.433Z,1.1
2022-10-17T19:17:36.039Z,0.9
2022-10-17T19:22:36.663Z,0.9
2022-10-17T19:27:37.192Z,0.8
2022-10-17T19:32:37.950Z,0.7
2022-10-17T19:37:38.518Z,1.1
2022-10-17T19:42:39.018Z,0.6
2022-10-17T19:47:39.713Z,0.9
2022-10-17T19:52:40.254Z,0.9
2022-10-17T19:57:40.878Z,0.8
2022-10-17T20:02:41.392Z,0.6
2022-10-17T20:07:41.935Z,0.9
2022-10-17T20:12:42.467Z,0.5
2022-10-17T20:17:43.138Z,0.7
2022-10-17T20:22:43.738Z,0.6
2022-10-17T20:27:44.361Z,0.6
2022-10-17T20:32:44.969Z,0.9
2022-10-17T20:37:45.708Z,0.7
2022-10-17T20:42:46.146Z,0.6
2022-10-17T20:47:50.321Z,0.5
2022-10-17T20:52:47.354Z,0.7
2022-10-17T20:57:47.840Z,0.5
2022-10-17T21:02:48.827Z,0.5
2022-10-17T21:07:49.013Z,0.9
2022-10-17T21:12:53.818Z,1.1
2022-10-17T21:17:50.141Z,0.5
2022-10-17T21:22:50.645Z,0.9
2022-10-17T21:27:51.146Z,0.8
2022-10-17T21:32:52.229Z,0.6
2022-10-17T21:37:52.218Z,0.7
2022-10-17T21:42:52.751Z,0.6
2022-10-17T21:48:11.059Z,0.5
2022-10-17T21:52:53.922Z,0.6
2022-10-17T21:57:54.491Z,0.7
2022-10-17T22:02:55.526Z,0.6
2022-10-17T22:07:55.620Z,0.6
2022-10-17T22:12:56.129Z,0.6
2022-10-17T22:17:56.979Z,0.7
2022-10-17T22:22:57.369Z,0.5
2022-10-17T22:27:57.849Z,0.7
2022-10-17T22:32:58.417Z,0.9
2022-10-17T22:37:58.998Z,0.7
2022-10-17T22:42:59.598Z,0.6
2022-10-17T22:48:00.105Z,0.4
2022-10-17T22:53:00.678Z,0.6
2022-10-17T22:58:01.125Z,0.5
2022-10-17T23:03:01.970Z,0.6
2022-10-17T23:08:02.177Z,0.5
2022-10-17T23:13:02.775Z,0.7
2022-10-17T23:18:03.306Z,0.6
2022-10-17T23:23:03.759Z,0.4
2022-10-17T23:28:04.309Z,0.4
2022-10-17T23:33:04.888Z,0.6
2022-10-17T23:38:05.436Z,0.4
2022-10-17T23:43:05.881Z,0.4
2022-10-17T23:48:06.507Z,0.4
2022-10-17T23:53:06.937Z,0.5
2022-10-17T23:58:07.488Z,0.6
